KPHD/PHD METAR and TAF weather

Enter ICAO airport designator
Station Type Date Time Source
KPHD METAR 2021/10/20 06:53 UTC NOAA

KPHD 200653Z AUTO 00000KT 10SM CLR 07/07 A3018 RMK AO2 SLP220 T00670067


Station Type Date Time Source
KPHD Decoded METAR 2021/10/20 06:53 UTC NOAA

NEW PHILADELPHIA CLEVER FLD, OH, United States (KPHD) 40-28N 81-25W 272M
Oct 20, 2021 - 02:53 AM EDT / 2021.10.20 0653 UTC
Wind: Calm:0
Visibility: 10 mile(s):0
Sky conditions: clear
Temperature: 44.1 F (6.7 C)
Dew Point: 44.1 F (6.7 C)
Relative Humidity: 100%
Pressure (altimeter): 30.18 in. Hg (1022 hPa)
ob: KPHD 200653Z AUTO 00000KT 10SM CLR 07/07 A3018 RMK AO2 SLP220 T00670067
cycle: 7

Station Type Date Time Source
KPHD TAF UTC NOAA

Error!

Example: see airport list